Time;durP1;ratioP1;P1;durP2;ratioP2;P2;SDS_P1;SDS_P2;PMS_P1;PMS_P2;Temp;Humidity;BMP_temperature;BMP_pressure;BME280_temperature;BME280_humidity;BME280_pressure;Samples;Min_cycle;Max_cycle;Signal;HPM_P1;HPM_P2
2021/06/08 00:01:48;;;;;;;;;;;;;;;18.02;64.71;100381.63;1593186;90;20192;-90
2021/06/08 00:04:12;;;;;;;;;;;;;;;17.96;64.47;100378.26;1595056;90;20124;-90
2021/06/08 00:06:38;;;;;;;;;;;;;;;17.93;64.75;100383.95;1595296;90;20383;-90
2021/06/08 00:09:04;;;;;;;;;;;;;;;17.89;64.58;100376.39;1595274;90;20126;-90
2021/06/08 00:11:30;;;;;;;;;;;;;;;17.87;64.72;100385.03;1595133;90;20100;-89
2021/06/08 00:13:57;;;;;;;;;;;;;;;17.81;65.13;100387.36;1593462;90;20169;-90
2021/06/08 00:16:23;;;;;;;;;;;;;;;17.75;65.39;100387.95;1593129;90;20133;-90
2021/06/08 00:18:49;;;;;;;;;;;;;;;17.68;65.79;100388.23;1593718;90;20105;-90
2021/06/08 00:21:15;;;;;;;;;;;;;;;17.61;65.82;100384.52;1593962;90;20144;-90
2021/06/08 00:23:41;;;;;;;;;;;;;;;17.55;65.99;100381.13;1594020;90;20394;-90
2021/06/08 00:26:06;;;;;;;;;;;;;;;17.50;66.09;100386.91;1594406;90;20156;-90
2021/06/08 00:28:32;;;;;;;;;;;;;;;17.44;65.84;100384.89;1594190;90;20105;-90
2021/06/08 00:30:58;;;;;;;;;;;;;;;17.40;66.38;100383.50;1594168;90;20386;-90
2021/06/08 00:33:23;;;;;;;;;;;;;;;17.38;66.48;100391.34;1573199;90;20112;-90
2021/06/08 00:35:49;;;;;;;;;;;;;;;17.34;66.51;100384.11;1595218;90;20403;-90
2021/06/08 00:38:15;;;;;;;;;;;;;;;17.31;66.44;100384.45;1595039;90;20138;-90
2021/06/08 00:40:44;;;;;;;;;;;;;;;17.31;66.21;100384.45;1594315;90;20195;-89
2021/06/08 00:43:10;;;;;;;;;;;;;;;17.29;66.04;100380.58;1594477;90;20121;-90
2021/06/08 00:45:36;;;;;;;;;;;;;;;17.28;66.11;100373.58;1593929;90;20188;-89
2021/06/08 00:48:02;;;;;;;;;;;;;;;17.27;66.34;100382.55;1593822;90;20120;-90
2021/06/08 00:50:28;;;;;;;;;;;;;;;17.25;66.60;100377.89;1594345;90;20148;-90
2021/06/08 00:52:54;;;;;;;;;;;;;;;17.21;66.40;100383.20;1595273;90;20108;-90
2021/06/08 00:55:20;;;;;;;;;;;;;;;17.16;66.56;100388.13;1594884;90;20200;-90
2021/06/08 00:57:48;;;;;;;;;;;;;;;17.11;67.22;100385.10;1594032;90;20387;-90
2021/06/08 01:00:14;;;;;;;;;;;;;;;17.04;67.76;100381.34;1595235;90;20108;-90
2021/06/08 01:02:40;;;;;;;;;;;;;;;16.97;67.29;100378.45;1594674;90;20139;-90
2021/06/08 01:05:08;;;;;;;;;;;;;;;16.95;67.96;100385.77;1594540;90;20093;-89
2021/06/08 01:07:34;;;;;;;;;;;;;;;16.90;68.00;100384.54;1593831;90;20132;-90
2021/06/08 01:10:01;;;;;;;;;;;;;;;16.85;68.27;100383.17;1594035;90;20164;-89
2021/06/08 01:12:27;;;;;;;;;;;;;;;16.81;67.96;100378.27;1592643;90;20132;-89
2021/06/08 01:14:53;;;;;;;;;;;;;;;16.79;68.06;100377.61;1590504;90;20152;-89
2021/06/08 01:17:19;;;;;;;;;;;;;;;16.78;67.82;100380.77;1590197;90;20116;-90
2021/06/08 01:19:48;;;;;;;;;;;;;;;16.75;68.28;100381.53;1593505;90;20136;-90
2021/06/08 01:22:15;;;;;;;;;;;;;;;16.72;68.42;100372.51;1594974;90;20122;-90
2021/06/08 01:24:44;;;;;;;;;;;;;;;16.70;68.18;100375.30;1595315;90;20496;-88
2021/06/08 01:27:09;;;;;;;;;;;;;;;16.70;68.29;100371.80;1608965;89;20102;-90
2021/06/08 01:29:37;;;;;;;;;;;;;;;16.67;68.32;100366.27;1598551;88;20105;-89
2021/06/08 01:32:04;;;;;;;;;;;;;;;16.65;67.99;100365.11;1593912;90;20164;-89
2021/06/08 01:34:31;;;;;;;;;;;;;;;16.64;68.30;100363.91;1594097;90;20117;-89
2021/06/08 01:36:57;;;;;;;;;;;;;;;16.62;67.91;100360.08;1584944;90;20540;-89
2021/06/08 01:39:23;;;;;;;;;;;;;;;16.61;68.15;100362.37;1594123;90;20160;-89
2021/06/08 01:41:50;;;;;;;;;;;;;;;16.58;68.37;100365.37;1595011;90;20121;-89
2021/06/08 01:44:16;;;;;;;;;;;;;;;16.56;68.78;100362.50;1594658;90;20466;-90
2021/06/08 01:46:42;;;;;;;;;;;;;;;16.52;68.31;100359.30;1593764;90;20220;-89
2021/06/08 01:49:08;;;;;;;;;;;;;;;16.49;68.78;100362.75;1594680;90;20148;-90
2021/06/08 01:51:57;;;;;;;;;;;;;;;16.45;69.22;100372.00;1595358;90;20139;-91
2021/06/08 01:54:29;;;;;;;;;;;;;;;16.40;69.02;100381.28;1592392;90;20177;-89
2021/06/08 01:57:15;;;;;;;;;;;;;;;16.31;69.26;100381.33;1590282;90;20168;-90
2021/06/08 02:00:10;;;;;;;;;;;;;;;16.22;69.65;100379.04;1590578;90;20112;-90
2021/06/08 02:02:59;;;;;;;;;;;;;;;16.13;69.68;100374.62;1590283;90;20105;-90
2021/06/08 02:05:44;;;;;;;;;;;;;;;16.09;69.41;100370.55;1590860;90;20151;-90
2021/06/08 02:08:16;;;;;;;;;;;;;;;16.06;70.13;100380.19;1595092;90;20160;-91
2021/06/08 02:10:54;;;;;;;;;;;;;;;15.99;70.19;100383.05;1590425;90;20145;-91
2021/06/08 02:13:32;;;;;;;;;;;;;;;15.93;70.15;100384.49;1590640;90;20135;-90
2021/06/08 02:16:22;;;;;;;;;;;;;;;15.91;70.28;100385.95;1590429;90;20144;-91
2021/06/08 02:18:49;;;;;;;;;;;;;;;15.85;70.65;100375.05;1590581;90;20179;-88
2021/06/08 02:21:20;;;;;;;;;;;;;;;15.78;70.48;100380.59;1591170;90;20124;-88
2021/06/08 02:23:49;;;;;;;;;;;;;;;15.74;70.60;100380.05;1594221;90;20162;-89
2021/06/08 02:26:17;;;;;;;;;;;;;;;15.73;70.65;100373.52;1595347;90;20109;-89
2021/06/08 02:28:43;;;;;;;;;;;;;;;15.68;70.82;100377.46;1595134;90;20450;-89
2021/06/08 02:31:10;;;;;;;;;;;;;;;15.63;71.08;100378.36;1595250;90;20124;-88
2021/06/08 02:33:38;;;;;;;;;;;;;;;15.60;70.84;100380.47;1595039;90;20479;-89
2021/06/08 02:36:05;;;;;;;;;;;;;;;15.60;71.00;100391.11;1594226;90;20141;-90
2021/06/08 02:38:35;;;;;;;;;;;;;;;15.55;71.54;100382.21;1594575;90;20132;-89
2021/06/08 02:41:03;;;;;;;;;;;;;;;15.53;71.36;100374.88;1594511;90;20117;-89
2021/06/08 02:43:30;;;;;;;;;;;;;;;15.52;71.43;100386.48;1595213;90;20129;-89
2021/06/08 02:45:57;;;;;;;;;;;;;;;15.49;71.71;100383.61;1572818;90;20136;-89
2021/06/08 02:48:24;;;;;;;;;;;;;;;15.47;71.00;100389.58;1594032;90;20141;-90
2021/06/08 02:50:49;;;;;;;;;;;;;;;15.48;71.91;100386.42;1594234;90;20117;-90
2021/06/08 02:53:16;;;;;;;;;;;;;;;15.45;71.66;100392.86;1594380;90;20101;-89
2021/06/08 02:55:43;;;;;;;;;;;;;;;15.44;72.08;100387.20;1595067;90;20169;-89
2021/06/08 02:58:10;;;;;;;;;;;;;;;15.44;71.54;100394.34;1594101;90;20092;-89
2021/06/08 03:00:36;;;;;;;;;;;;;;;15.43;71.84;100398.83;1594156;90;20395;-89
2021/06/08 03:03:03;;;;;;;;;;;;;;;15.42;71.62;100399.78;1594096;90;20120;-90
2021/06/08 03:05:41;;;;;;;;;;;;;;;15.41;72.00;100398.11;1594079;90;20157;-89
2021/06/08 03:08:19;;;;;;;;;;;;;;;15.44;71.85;100403.64;1589805;90;20136;-90
2021/06/08 03:10:48;;;;;;;;;;;;;;;15.43;71.37;100400.16;1595447;90;20141;-90
2021/06/08 03:13:16;;;;;;;;;;;;;;;15.44;72.02;100401.83;1595322;90;20140;-89
2021/06/08 03:15:51;;;;;;;;;;;;;;;15.44;71.81;100407.14;1595460;90;20100;-90
2021/06/08 03:18:20;;;;;;;;;;;;;;;15.43;71.86;100406.80;1595292;90;20153;-90
2021/06/08 03:20:49;;;;;;;;;;;;;;;15.41;71.57;100414.56;1595560;90;20097;-89
2021/06/08 03:23:16;;;;;;;;;;;;;;;15.40;71.35;100414.19;1591501;90;20179;-90
2021/06/08 03:25:44;;;;;;;;;;;;;;;15.40;71.13;100412.86;1594152;88;20137;-90
2021/06/08 03:28:10;;;;;;;;;;;;;;;15.39;70.83;100416.52;1594211;90;20141;-90
2021/06/08 03:30:37;;;;;;;;;;;;;;;15.38;71.21;100412.18;1594412;90;20133;-91
2021/06/08 03:33:03;;;;;;;;;;;;;;;15.36;70.81;100420.28;1594106;90;20487;-88
2021/06/08 03:35:29;;;;;;;;;;;;;;;15.35;70.64;100418.61;1594613;90;20186;-91
2021/06/08 03:37:56;;;;;;;;;;;;;;;15.34;70.65;100420.93;1595248;90;20299;-91
2021/06/08 03:40:23;;;;;;;;;;;;;;;15.36;70.37;100430.08;1594631;90;20191;-90
2021/06/08 03:42:50;;;;;;;;;;;;;;;15.37;70.47;100424.64;1594953;90;20112;-87
2021/06/08 03:45:17;;;;;;;;;;;;;;;15.37;70.34;100431.28;1594903;90;20161;-89
2021/06/08 03:47:46;;;;;;;;;;;;;;;15.37;70.17;100423.81;1595264;90;20133;-90
2021/06/08 03:50:14;;;;;;;;;;;;;;;15.37;70.03;100425.13;1574184;90;20136;-89
2021/06/08 03:52:50;;;;;;;;;;;;;;;15.36;69.80;100429.59;1595240;90;20109;-90
2021/06/08 03:55:13;;;;;;;;;;;;;;;15.38;69.76;100428.97;1591983;89;20148;-89
2021/06/08 03:57:43;;;;;;;;;;;;;;;15.39;69.78;100421.83;1590886;90;20128;-91
2021/06/08 04:00:11;;;;;;;;;;;;;;;15.41;69.84;100421.21;1593393;90;20124;-90
2021/06/08 04:02:39;;;;;;;;;;;;;;;15.40;69.71;100422.17;1594199;90;20425;-90
2021/06/08 04:05:08;;;;;;;;;;;;;;;15.41;69.70;100419.38;1594455;90;20112;-90
2021/06/08 04:07:34;;;;;;;;;;;;;;;15.42;69.55;100423.72;1595502;90;20117;-89
2021/06/08 04:10:00;;;;;;;;;;;;;;;15.42;69.59;100427.70;1593825;90;20124;-90
2021/06/08 04:12:26;;;;;;;;;;;;;;;15.44;69.40;100432.90;1590603;90;20141;-89
2021/06/08 04:14:52;;;;;;;;;;;;;;;15.45;69.32;100431.91;1558088;90;20141;-89
2021/06/08 04:17:18;;;;;;;;;;;;;;;15.46;69.55;100434.91;1548391;90;20423;-91
2021/06/08 04:19:44;;;;;;;;;;;;;;;15.48;69.69;100432.95;1590764;90;20193;-90
2021/06/08 04:22:10;;;;;;;;;;;;;;;15.50;69.41;100433.67;1590581;90;20443;-91
2021/06/08 04:24:36;;;;;;;;;;;;;;;15.53;69.50;100432.52;1590820;90;20113;-90
2021/06/08 04:27:03;;;;;;;;;;;;;;;15.55;69.14;100434.56;1590423;90;20108;-89
2021/06/08 04:29:29;;;;;;;;;;;;;;;15.57;69.03;100438.77;1590781;90;20116;-90
2021/06/08 04:31:56;;;;;;;;;;;;;;;15.60;69.27;100438.98;1591080;90;20148;-92
2021/06/08 04:34:22;;;;;;;;;;;;;;;15.61;69.24;100440.66;1590863;90;20168;-91
2021/06/08 04:36:49;;;;;;;;;;;;;;;15.64;69.20;100439.05;1590602;90;20148;-91
2021/06/08 04:39:15;;;;;;;;;;;;;;;15.67;69.11;100437.47;1569385;90;20471;-91
2021/06/08 04:41:40;;;;;;;;;;;;;;;15.70;68.97;100448.66;1590690;90;20104;-92
2021/06/08 04:44:07;;;;;;;;;;;;;;;15.73;68.91;100444.89;1590774;90;20147;-89
2021/06/08 04:46:39;;;;;;;;;;;;;;;15.76;68.72;100445.94;1590697;90;20579;-91
2021/06/08 04:49:05;;;;;;;;;;;;;;;15.80;68.59;100447.82;1590696;90;20135;-89
2021/06/08 04:51:32;;;;;;;;;;;;;;;15.84;68.51;100449.20;1590632;90;20447;-90
2021/06/08 04:53:58;;;;;;;;;;;;;;;15.87;68.48;100451.59;1590425;90;20127;-90
2021/06/08 04:56:24;;;;;;;;;;;;;;;15.90;68.29;100445.48;1590793;90;20139;-93
2021/06/08 04:58:49;;;;;;;;;;;;;;;15.97;68.13;100444.92;1590695;90;20456;-89
2021/06/08 05:01:28;;;;;;;;;;;;;;;16.02;68.07;100446.14;1590729;90;20140;-93
2021/06/08 05:04:03;;;;;;;;;;;;;;;16.08;68.07;100452.72;1590584;90;20121;-90
2021/06/08 05:06:34;;;;;;;;;;;;;;;16.15;68.02;100455.16;1590783;90;20430;-90
2021/06/08 05:09:03;;;;;;;;;;;;;;;16.23;67.67;100450.45;1590722;90;20153;-91
2021/06/08 05:11:42;;;;;;;;;;;;;;;16.32;67.52;100446.90;1590669;90;20108;-89
2021/06/08 05:14:10;;;;;;;;;;;;;;;16.39;67.35;100444.86;1590307;90;20132;-88
2021/06/08 05:16:39;;;;;;;;;;;;;;;16.49;67.13;100450.15;1590355;90;20100;-90
2021/06/08 05:19:04;;;;;;;;;;;;;;;16.55;66.53;100453.56;1569656;90;20144;-91
2021/06/08 05:21:31;;;;;;;;;;;;;;;16.63;66.39;100456.81;1569502;90;20144;-89
2021/06/08 05:23:57;;;;;;;;;;;;;;;16.70;65.72;100455.23;1590638;90;20136;-88
2021/06/08 05:26:23;;;;;;;;;;;;;;;16.75;65.75;100453.48;1569463;90;20120;-89
2021/06/08 05:28:50;;;;;;;;;;;;;;;16.77;65.97;100456.34;1590616;90;20160;-88
2021/06/08 05:31:19;;;;;;;;;;;;;;;16.81;65.69;100459.55;1590707;90;20124;-91
2021/06/08 05:33:46;;;;;;;;;;;;;;;16.85;66.05;100456.45;1590573;90;20394;-89
2021/06/08 05:36:12;;;;;;;;;;;;;;;16.89;65.89;100466.33;1590616;90;20147;-89
2021/06/08 05:38:39;;;;;;;;;;;;;;;16.91;65.60;100464.33;1590579;90;20140;-89
2021/06/08 05:41:07;;;;;;;;;;;;;;;16.92;64.92;100467.36;1590652;90;20141;-93
2021/06/08 05:43:33;;;;;;;;;;;;;;;16.94;65.24;100469.36;1590601;90;20116;-90
2021/06/08 05:46:00;;;;;;;;;;;;;;;16.99;65.46;100466.27;1590572;90;20120;-90
2021/06/08 05:48:29;;;;;;;;;;;;;;;17.03;65.17;100471.64;1590531;90;20125;-90
2021/06/08 05:50:56;;;;;;;;;;;;;;;17.08;65.25;100463.55;1590185;90;20140;-88
2021/06/08 05:53:23;;;;;;;;;;;;;;;17.15;65.23;100467.78;1590598;90;20411;-88
2021/06/08 05:55:51;;;;;;;;;;;;;;;17.22;64.75;100471.52;1590721;90;20124;-90
2021/06/08 05:58:22;;;;;;;;;;;;;;;17.28;64.87;100474.92;1590463;90;20141;-90
2021/06/08 06:00:47;;;;;;;;;;;;;;;17.33;64.56;100477.95;1590641;90;20112;-88
2021/06/08 06:03:14;;;;;;;;;;;;;;;17.40;64.21;100472.86;1590485;90;20104;-90
2021/06/08 06:05:42;;;;;;;;;;;;;;;17.47;64.43;100478.42;1590669;90;20153;-88
2021/06/08 06:08:08;;;;;;;;;;;;;;;17.52;63.90;100476.98;1590445;90;20445;-90
2021/06/08 06:10:33;;;;;;;;;;;;;;;17.56;63.95;100478.84;1590687;90;20148;-89
2021/06/08 06:13:01;;;;;;;;;;;;;;;17.61;63.59;100479.74;1590614;90;20160;-89
2021/06/08 06:15:28;;;;;;;;;;;;;;;17.66;63.54;100481.44;1590550;90;20135;-90
2021/06/08 06:17:54;;;;;;;;;;;;;;;17.69;63.36;100479.30;1590562;90;20143;-88
2021/06/08 06:20:20;;;;;;;;;;;;;;;17.73;62.92;100483.33;1590658;90;20414;-90
2021/06/08 06:22:46;;;;;;;;;;;;;;;17.78;62.86;100477.58;1590545;90;20104;-88
2021/06/08 06:25:13;;;;;;;;;;;;;;;17.82;63.04;100480.27;1590620;90;20143;-89
2021/06/08 06:27:41;;;;;;;;;;;;;;;17.87;63.10;100484.66;1590569;90;20144;-90
2021/06/08 06:30:09;;;;;;;;;;;;;;;17.92;63.35;100485.52;1590632;90;20097;-87
2021/06/08 06:32:35;;;;;;;;;;;;;;;17.99;63.07;100486.58;1590475;90;20120;-90
2021/06/08 06:35:03;;;;;;;;;;;;;;;18.05;62.94;100490.80;1590609;90;20149;-89
2021/06/08 06:37:29;;;;;;;;;;;;;;;18.13;62.92;100490.50;1590470;90;20192;-88
2021/06/08 06:39:57;;;;;;;;;;;;;;;18.20;62.94;100487.08;1590628;90;20402;-89
2021/06/08 06:42:29;;;;;;;;;;;;;;;18.26;62.96;100485.59;1590435;90;20426;-88
2021/06/08 06:44:55;;;;;;;;;;;;;;;18.32;63.13;100492.14;1589521;90;20151;-88
2021/06/08 06:47:21;;;;;;;;;;;;;;;18.39;63.11;100490.00;1590463;90;20163;-89
2021/06/08 06:49:47;;;;;;;;;;;;;;;18.47;62.99;100493.24;1590618;90;20454;-90
2021/06/08 06:52:13;;;;;;;;;;;;;;;18.54;63.09;100485.43;1590560;90;20136;-93
2021/06/08 06:54:39;;;;;;;;;;;;;;;18.61;63.29;100487.80;1590673;90;20168;-91
2021/06/08 06:57:06;;;;;;;;;;;;;;;18.69;63.01;100485.16;1590474;90;20152;-90
2021/06/08 06:59:32;;;;;;;;;;;;;;;18.75;63.45;100477.86;1590617;90;20152;-89
2021/06/08 07:01:59;;;;;;;;;;;;;;;18.83;63.66;100474.41;1590422;90;20180;-89
2021/06/08 07:04:25;;;;;;;;;;;;;;;18.90;63.49;100482.12;1590586;90;20139;-88
2021/06/08 07:06:52;;;;;;;;;;;;;;;18.99;63.36;100481.16;1590396;90;20147;-90
2021/06/08 07:09:23;;;;;;;;;;;;;;;19.09;63.50;100485.86;1590579;90;20129;-91
2021/06/08 07:11:52;;;;;;;;;;;;;;;19.18;63.33;100487.56;1590373;90;20446;-91
2021/06/08 07:14:19;;;;;;;;;;;;;;;19.28;63.24;100481.20;1590680;90;20399;-88
2021/06/08 07:16:46;;;;;;;;;;;;;;;19.37;62.90;100488.25;1590373;90;20238;-87
2021/06/08 07:19:14;;;;;;;;;;;;;;;19.45;62.61;100487.78;1590661;90;20137;-91
2021/06/08 07:21:43;;;;;;;;;;;;;;;19.54;62.57;100483.77;1589781;90;20153;-91
2021/06/08 07:24:11;;;;;;;;;;;;;;;19.61;62.83;100489.64;1589684;90;20434;-91
2021/06/08 07:26:38;;;;;;;;;;;;;;;19.71;62.91;100487.31;1589561;90;20137;-88
2021/06/08 07:29:08;;;;;;;;;;;;;;;19.78;62.90;100488.34;1590527;90;20121;-88
2021/06/08 07:31:53;;;;;;;;;;;;;;;19.86;62.80;100483.81;1590177;90;20100;-88
2021/06/08 07:34:25;;;;;;;;;;;;;;;19.97;62.61;100490.66;1590550;90;20174;-89
2021/06/08 07:36:54;;;;;;;;;;;;;;;20.07;62.74;100487.81;1589233;90;20161;-87
2021/06/08 07:39:23;;;;;;;;;;;;;;;20.18;62.41;100492.00;1590503;90;20120;-89
2021/06/08 07:41:59;;;;;;;;;;;;;;;20.30;62.54;100493.30;1590344;90;20159;-88
2021/06/08 07:44:29;;;;;;;;;;;;;;;20.40;63.00;100488.61;1590542;90;20128;-90
2021/06/08 07:46:58;;;;;;;;;;;;;;;20.51;62.02;100488.27;1590333;90;20151;-88
2021/06/08 07:49:24;;;;;;;;;;;;;;;20.60;61.51;100489.92;1590606;90;20143;-87
2021/06/08 07:51:50;;;;;;;;;;;;;;;20.72;61.34;100485.01;1590396;90;20147;-93
2021/06/08 07:54:16;;;;;;;;;;;;;;;20.82;59.91;100486.97;1569213;90;20146;-88
2021/06/08 07:56:42;;;;;;;;;;;;;;;20.92;59.85;100486.77;1590441;90;20108;-91
2021/06/08 07:59:13;;;;;;;;;;;;;;;21.03;59.18;100486.91;1590646;90;20136;-90
2021/06/08 08:01:39;;;;;;;;;;;;;;;21.14;58.73;100485.66;1590319;90;20140;-88
2021/06/08 08:04:09;;;;;;;;;;;;;;;21.25;58.87;100479.89;1590638;90;20121;-88
2021/06/08 08:06:35;;;;;;;;;;;;;;;21.36;58.17;100484.06;1590388;90;20148;-88
2021/06/08 08:09:03;;;;;;;;;;;;;;;21.43;56.37;100485.85;1590506;90;20443;-88
2021/06/08 08:11:31;;;;;;;;;;;;;;;21.50;57.05;100489.48;1590489;90;20136;-88
2021/06/08 08:13:57;;;;;;;;;;;;;;;21.63;57.08;100493.44;1590446;90;20108;-89
2021/06/08 08:16:24;;;;;;;;;;;;;;;21.74;56.63;100494.34;1590482;90;20151;-89
2021/06/08 08:18:52;;;;;;;;;;;;;;;21.83;57.43;100495.95;1590379;90;20136;-90
2021/06/08 08:21:19;;;;;;;;;;;;;;;21.94;57.77;100496.02;1590502;90;20419;-89
2021/06/08 08:23:47;;;;;;;;;;;;;;;22.05;56.51;100494.27;1590413;90;20145;-87
2021/06/08 08:26:13;;;;;;;;;;;;;;;22.15;56.89;100496.70;1590475;90;20140;-89
2021/06/08 08:28:41;;;;;;;;;;;;;;;22.27;56.01;100491.72;1590470;90;20147;-88
2021/06/08 08:31:10;;;;;;;;;;;;;;;22.37;55.49;100495.80;1590497;90;20435;-88
2021/06/08 08:33:36;;;;;;;;;;;;;;;22.47;55.60;100496.88;1590416;90;20141;-88
2021/06/08 08:36:03;;;;;;;;;;;;;;;22.60;55.62;100495.72;1590669;90;20105;-89
2021/06/08 08:38:29;;;;;;;;;;;;;;;22.70;54.95;100502.16;1590458;90;20441;-89
2021/06/08 08:40:57;;;;;;;;;;;;;;;22.80;55.05;100497.33;1590419;90;20171;-95
2021/06/08 08:43:25;;;;;;;;;;;;;;;22.90;55.20;100501.08;1590474;90;20137;-94
2021/06/08 08:45:51;;;;;;;;;;;;;;;22.99;54.95;100502.69;1590653;90;20414;-90
2021/06/08 08:48:19;;;;;;;;;;;;;;;23.06;54.40;100498.21;1590386;90;20136;-88
2021/06/08 08:50:45;;;;;;;;;;;;;;;23.10;54.88;100500.02;1590637;90;20147;-93
2021/06/08 08:53:11;;;;;;;;;;;;;;;23.17;54.42;100498.26;1590727;90;20127;-89
2021/06/08 08:55:39;;;;;;;;;;;;;;;23.28;53.97;100501.79;1590776;90;20136;-90
2021/06/08 08:58:06;;;;;;;;;;;;;;;23.36;54.12;100492.27;1590518;90;20447;-90
2021/06/08 09:00:33;;;;;;;;;;;;;;;23.43;53.88;100488.30;1590613;90;20125;-89
2021/06/08 09:03:02;;;;;;;;;;;;;;;23.48;53.21;100492.58;1590494;90;20156;-89
2021/06/08 09:05:28;;;;;;;;;;;;;;;23.54;53.81;100487.77;1589668;90;20167;-89
2021/06/08 09:07:54;;;;;;;;;;;;;;;23.59;53.15;100486.70;1590749;90;20104;-89
2021/06/08 09:10:21;;;;;;;;;;;;;;;23.70;52.37;100488.06;1590744;90;20143;-91
2021/06/08 09:12:48;;;;;;;;;;;;;;;23.81;52.25;100494.78;1590588;90;20120;-92
2021/06/08 09:15:14;;;;;;;;;;;;;;;23.87;51.76;100494.02;1590687;90;20419;-92
2021/06/08 09:17:40;;;;;;;;;;;;;;;23.92;51.94;100496.11;1590592;90;20140;-90
2021/06/08 09:20:11;;;;;;;;;;;;;;;23.98;51.14;100493.48;1590609;90;20124;-89
2021/06/08 09:23:00;;;;;;;;;;;;;;;24.05;51.17;100489.48;1598487;89;20204;-94
2021/06/08 09:25:39;;;;;;;;;;;;;;;24.10;50.16;100491.09;1604056;89;20138;-95
2021/06/08 09:28:24;;;;;;;;;;;;;;;24.15;50.53;100489.97;1607770;89;20147;-93
2021/06/08 09:30:59;;;;;;;;;;;;;;;24.24;50.27;100492.84;1608119;89;20178;-90
2021/06/08 09:33:30;;;;;;;;;;;;;;;24.33;49.54;100491.67;1607728;89;20126;-92
2021/06/08 09:36:02;;;;;;;;;;;;;;;24.39;49.12;100494.10;1608150;89;20109;-88
2021/06/08 09:38:52;;;;;;;;;;;;;;;24.45;49.42;100489.30;1608393;89;20142;-90
2021/06/08 09:41:21;;;;;;;;;;;;;;;24.52;49.21;100488.82;1512206;93;20128;-92
2021/06/08 09:43:57;;;;;;;;;;;;;;;24.59;48.80;100487.51;1568717;90;20137;-87
2021/06/08 09:46:29;;;;;;;;;;;;;;;24.68;48.08;100489.02;1595035;90;20134;-92
2021/06/08 09:49:05;;;;;;;;;;;;;;;24.73;47.56;100485.70;1595270;90;20160;-90
2021/06/08 09:51:55;;;;;;;;;;;;;;;24.77;46.77;100482.92;1595160;90;20169;-91
2021/06/08 09:54:27;;;;;;;;;;;;;;;24.80;47.03;100487.39;1595566;90;20132;-88
2021/06/08 09:57:20;;;;;;;;;;;;;;;24.87;46.86;100484.72;1595088;90;20128;-89
2021/06/08 09:59:58;;;;;;;;;;;;;;;24.90;46.10;100481.63;1595428;90;20117;-90
2021/06/08 10:02:45;;;;;;;;;;;;;;;24.96;46.24;100480.83;1595332;90;20140;-90
2021/06/08 10:05:18;;;;;;;;;;;;;;;25.04;45.89;100481.16;1595062;90;20120;-93
2021/06/08 10:07:44;;;;;;;;;;;;;;;25.09;45.64;100477.87;1595367;90;20108;-89
2021/06/08 10:10:14;;;;;;;;;;;;;;;25.16;44.76;100484.15;1595097;90;20109;-88
2021/06/08 10:12:59;;;;;;;;;;;;;;;25.20;44.32;100480.83;1595463;90;20109;-84
2021/06/08 10:15:27;;;;;;;;;;;;;;;25.29;44.19;100476.08;1595102;90;20169;-87
2021/06/08 10:17:58;;;;;;;;;;;;;;;25.39;43.27;100471.64;1590523;90;20489;-88
2021/06/08 10:20:26;;;;;;;;;;;;;;;25.42;43.45;100469.88;1589040;90;20128;-89
2021/06/08 10:22:52;;;;;;;;;;;;;;;25.47;43.37;100472.28;1590362;90;20108;-92
2021/06/08 10:25:18;;;;;;;;;;;;;;;25.54;43.02;100473.65;1590669;90;20171;-88
2021/06/08 10:27:44;;;;;;;;;;;;;;;25.60;42.82;100475.53;1590097;90;20428;-91
2021/06/08 10:30:11;;;;;;;;;;;;;;;25.69;42.15;100472.09;1590621;90;20140;-86
2021/06/08 10:32:37;;;;;;;;;;;;;;;25.76;41.26;100474.80;1590180;90;20172;-90
2021/06/08 10:35:07;;;;;;;;;;;;;;;25.79;40.53;100471.68;1590556;90;20402;-89
2021/06/08 10:37:35;;;;;;;;;;;;;;;25.85;41.90;100473.59;1590434;90;20112;-86
2021/06/08 10:40:01;;;;;;;;;;;;;;;25.91;39.85;100471.41;1590356;90;20113;-91
2021/06/08 10:42:27;;;;;;;;;;;;;;;25.96;39.26;100472.45;1590507;90;20120;-91
2021/06/08 10:45:05;;;;;;;;;;;;;;;26.00;39.55;100470.16;1590433;90;20108;-89
2021/06/08 10:47:37;;;;;;;;;;;;;;;26.07;39.64;100463.40;1589722;90;20135;-90
2021/06/08 10:50:05;;;;;;;;;;;;;;;26.13;38.61;100470.68;1589910;90;20176;-89
2021/06/08 10:52:46;;;;;;;;;;;;;;;25.96;36.98;100434.61;1580103;90;20403;-90
2021/06/08 10:55:12;;;;;;;;;;;;;;;26.16;37.30;100464.85;1589521;90;20125;-90
2021/06/08 10:57:43;;;;;;;;;;;;;;;26.22;37.30;100472.09;1590150;90;20109;-95
2021/06/08 11:00:25;;;;;;;;;;;;;;;26.26;37.07;100461.69;1590611;90;20164;-89
2021/06/08 11:03:00;;;;;;;;;;;;;;;26.29;37.49;100473.44;1589425;90;20167;-90
2021/06/08 11:05:37;;;;;;;;;;;;;;;26.31;36.96;100466.78;1590047;90;20132;-91
2021/06/08 11:08:03;;;;;;;;;;;;;;;26.33;36.75;100464.70;1587665;90;20434;-89
2021/06/08 11:10:35;;;;;;;;;;;;;;;26.38;36.98;100455.42;1590572;90;20465;-89
2021/06/08 11:13:17;;;;;;;;;;;;;;;26.42;35.74;100465.30;1590525;90;20518;-90
2021/06/08 11:15:45;;;;;;;;;;;;;;;26.47;37.23;100458.73;1590605;90;20134;-91
2021/06/08 11:18:25;;;;;;;;;;;;;;;26.58;36.65;100454.04;1595217;90;20160;-90
2021/06/08 11:21:00;;;;;;;;;;;;;;;26.66;36.58;100447.58;1594725;90;20163;-87
2021/06/08 11:23:41;;;;;;;;;;;;;;;26.74;36.17;100449.20;1573922;90;20412;-90
2021/06/08 11:26:03;;;;;;;;;;;;;;;26.76;35.40;100443.89;1594246;90;20140;-89
2021/06/08 11:28:42;;;;;;;;;;;;;;;26.80;36.66;100449.18;1595527;90;20148;-88
2021/06/08 11:31:09;;;;;;;;;;;;;;;26.88;36.39;100435.91;1595323;90;20137;-92
2021/06/08 11:33:41;;;;;;;;;;;;;;;26.90;36.12;100440.59;1594943;90;20406;-91
2021/06/08 11:36:23;;;;;;;;;;;;;;;26.93;36.15;100445.59;1595161;90;20108;-91
2021/06/08 11:38:54;;;;;;;;;;;;;;;26.94;36.04;100437.77;1594724;90;20116;-88
2021/06/08 11:41:20;;;;;;;;;;;;;;;26.95;36.35;100436.73;1595099;90;20131;-90
2021/06/08 11:43:52;;;;;;;;;;;;;;;27.00;35.86;100442.84;1594583;90;20302;-89
2021/06/08 11:46:30;;;;;;;;;;;;;;;27.05;36.52;100445.22;1592319;90;20108;-89
2021/06/08 11:49:08;;;;;;;;;;;;;;;27.10;36.92;100440.49;1593859;90;20108;-90
2021/06/08 11:51:40;;;;;;;;;;;;;;;27.17;36.85;100441.84;1594252;90;20155;-87
2021/06/08 11:54:13;;;;;;;;;;;;;;;27.23;36.86;100440.45;1595186;90;20108;-87
2021/06/08 11:56:47;;;;;;;;;;;;;;;27.27;36.67;100436.77;1594671;90;20303;-88
2021/06/08 11:59:15;;;;;;;;;;;;;;;27.30;36.22;100429.56;1595121;90;20140;-89
2021/06/08 12:01:44;;;;;;;;;;;;;;;27.32;36.59;100432.90;1593974;90;20152;-86
2021/06/08 12:04:10;;;;;;;;;;;;;;;27.33;35.37;100436.73;1594088;90;20140;-89
2021/06/08 12:07:02;;;;;;;;;;;;;;;27.32;35.75;100443.20;1594487;90;20147;-90
2021/06/08 12:09:30;;;;;;;;;;;;;;;27.32;36.17;100438.31;1595117;90;20120;-91
2021/06/08 12:11:57;;;;;;;;;;;;;;;27.34;36.42;100440.27;1594610;90;20176;-86
2021/06/08 12:14:25;;;;;;;;;;;;;;;27.33;36.89;100435.38;1593665;90;20422;-87
2021/06/08 12:16:58;;;;;;;;;;;;;;;27.39;37.19;100440.98;1594461;90;20490;-88
2021/06/08 12:19:29;;;;;;;;;;;;;;;27.47;36.44;100437.45;1595014;90;20128;-90
2021/06/08 12:21:57;;;;;;;;;;;;;;;27.49;36.58;100430.48;1595292;90;20148;-88
2021/06/08 12:24:23;;;;;;;;;;;;;;;27.49;37.07;100432.66;1595276;90;20149;-90
2021/06/08 12:26:59;;;;;;;;;;;;;;;27.51;36.71;100427.86;1595173;90;20173;-87
2021/06/08 12:29:25;;;;;;;;;;;;;;;27.52;37.16;100432.23;1594732;90;20443;-88
2021/06/08 12:31:57;;;;;;;;;;;;;;;27.50;36.10;100428.89;1595031;90;20152;-88
2021/06/08 12:34:25;;;;;;;;;;;;;;;27.49;36.33;100425.06;1594168;90;20435;-88
2021/06/08 12:36:52;;;;;;;;;;;;;;;27.48;35.72;100420.70;1594946;90;20430;-89
2021/06/08 12:39:20;;;;;;;;;;;;;;;27.46;36.14;100419.55;1595473;90;20105;-88
2021/06/08 12:41:47;;;;;;;;;;;;;;;27.46;36.41;100415.48;1595214;90;20148;-91
2021/06/08 12:44:24;;;;;;;;;;;;;;;27.50;36.33;100415.34;1594188;90;20120;-89
2021/06/08 12:46:51;;;;;;;;;;;;;;;27.52;36.29;100417.32;1594106;90;20165;-90